Time;durP1;ratioP1;P1;durP2;ratioP2;P2;SDS_P1;SDS_P2;PMS_P1;PMS_P2;Temp;Humidity;BMP_temperature;BMP_pressure;BME280_temperature;BME280_humidity;BME280_pressure;Samples;Min_cycle;Max_cycle;Signal;HPM_P1;HPM_P2
2022/11/15 00:04:37;;;;;;;98.07;40.75;;;;;;;;;;13077786;22;19987;-76
2022/11/15 00:09:38;;;;;;;84.55;40.03;;;;;;;;;;13076227;22;19995;-76
2022/11/15 00:14:38;;;;;;;86.38;40.65;;;;;;;;;;13077257;22;19987;-73
2022/11/15 00:19:39;;;;;;;86.50;40.88;;;;;;;;;;13076288;22;20510;-73
2022/11/15 00:24:39;;;;;;;92.57;40.28;;;;;;;;;;13077231;22;19987;-74
2022/11/15 00:29:43;;;;;;;94.38;39.88;;;;;;;;;;13078329;22;20067;-75
2022/11/15 00:34:43;;;;;;;100.22;41.95;;;;;;;;;;13076634;22;20001;-73
2022/11/15 00:39:44;;;;;;;93.90;41.10;;;;;;;;;;13077995;22;19987;-74
2022/11/15 00:44:44;;;;;;;101.50;41.95;;;;;;;;;;13127104;22;20018;-75
2022/11/15 00:49:45;;;;;;;93.45;43.30;;;;;;;;;;13077936;22;19991;-77
2022/11/15 00:54:45;;;;;;;86.93;39.13;;;;;;;;;;13123896;22;20007;-74
2022/11/15 00:59:45;;;;;;;105.05;42.08;;;;;;;;;;13076761;22;20018;-75
2022/11/15 01:04:45;;;;;;;95.70;42.10;;;;;;;;;;13079375;22;19991;-73
2022/11/15 01:09:46;;;;;;;87.72;41.05;;;;;;;;;;13130705;22;19991;-74
2022/11/15 01:14:46;;;;;;;100.28;41.35;;;;;;;;;;13080871;22;20030;-75
2022/11/15 01:19:46;;;;;;;100.40;41.75;;;;;;;;;;13081032;22;20029;-74
2022/11/15 01:24:46;;;;;;;103.30;42.67;;;;;;;;;;13081023;22;19986;-74
2022/11/15 01:29:47;;;;;;;98.07;41.08;;;;;;;;;;13081340;22;20112;-75
2022/11/15 01:34:48;;;;;;;99.00;40.88;;;;;;;;;;13130304;22;19995;-74
2022/11/15 01:39:48;;;;;;;87.00;40.78;;;;;;;;;;13080697;22;20439;-74
2022/11/15 01:44:49;;;;;;;103.65;43.17;;;;;;;;;;13086071;22;19994;-75
2022/11/15 01:49:50;;;;;;;102.68;44.50;;;;;;;;;;13099773;22;19995;-75
2022/11/15 01:54:53;;;;;;;88.88;40.40;;;;;;;;;;13097463;22;20346;-75
2022/11/15 01:59:54;;;;;;;91.25;40.97;;;;;;;;;;13083259;22;20015;-75
2022/11/15 02:04:55;;;;;;;102.25;41.55;;;;;;;;;;13129918;22;20005;-75
2022/11/15 02:09:58;;;;;;;103.63;43.95;;;;;;;;;;13129641;22;20041;-74
2022/11/15 02:14:58;;;;;;;101.30;46.13;;;;;;;;;;13079946;22;20029;-74
2022/11/15 02:20:05;;;;;;;102.95;43.75;;;;;;;;;;13053926;22;19991;-74
2022/11/15 02:25:20;;;;;;;93.68;44.10;;;;;;;;;;13080190;22;19990;-76
2022/11/15 02:30:39;;;;;;;111.43;43.72;;;;;;;;;;13129176;22;19999;-73
2022/11/15 02:35:43;;;;;;;99.38;42.60;;;;;;;;;;13079926;22;19995;-75
2022/11/15 02:40:51;;;;;;;113.75;43.53;;;;;;;;;;13079373;22;20383;-74
2022/11/15 02:45:56;;;;;;;112.35;44.40;;;;;;;;;;13079483;22;20427;-74
2022/11/15 02:50:58;;;;;;;103.10;44.15;;;;;;;;;;13079982;22;19995;-74
2022/11/15 02:55:59;;;;;;;110.15;45.78;;;;;;;;;;13120232;22;20363;-74
2022/11/15 03:01:08;;;;;;;100.73;41.53;;;;;;;;;;13127862;22;20002;-74
2022/11/15 03:06:23;;;;;;;99.43;45.13;;;;;;;;;;13079479;22;20073;-74
2022/11/15 03:11:24;;;;;;;80.40;38.15;;;;;;;;;;13079306;22;20001;-74
2022/11/15 03:16:28;;;;;;;94.30;42.78;;;;;;;;;;13079139;22;20083;-71
2022/11/15 03:21:29;;;;;;;85.10;35.75;;;;;;;;;;13079175;22;20002;-75
2022/11/15 03:26:30;;;;;;;71.82;30.52;;;;;;;;;;13054017;22;20434;-73
2022/11/15 03:31:48;;;;;;;77.65;29.50;;;;;;;;;;13078568;22;20029;-72
2022/11/15 03:36:48;;;;;;;;;;;;;;;;;;13079514;22;20085;-74
2022/11/15 03:42:18;;;;;;;90.13;42.00;;;;;;;;;;13078643;22;20071;-74
2022/11/15 03:47:51;;;;;;;97.32;40.75;;;;;;;;;;12969708;22;19997;-73
2022/11/15 03:52:53;;;;;;;65.07;25.88;;;;;;;;;;13019356;22;19991;-75
2022/11/15 03:57:56;;;;;;;38.92;18.25;;;;;;;;;;13123679;22;20018;-74
2022/11/15 04:02:56;;;;;;;36.78;15.13;;;;;;;;;;13085173;22;20022;-73
2022/11/15 04:07:56;;;;;;;29.38;15.10;;;;;;;;;;13079618;22;19998;-72
2022/11/15 04:12:57;;;;;;;44.13;20.92;;;;;;;;;;13078320;22;19991;-73
2022/11/15 04:17:57;;;;;;;49.15;24.15;;;;;;;;;;13127065;22;19995;-74
2022/11/15 04:28:18;;;;;;;96.60;36.45;;;;;;;;;;13126895;22;19991;-75
2022/11/15 04:33:18;;;;;;;112.22;30.67;;;;;;;;;;13126987;22;19987;-74
2022/11/15 04:38:19;;;;;;;92.03;32.75;;;;;;;;;;13078598;22;20006;-74
2022/11/15 04:43:19;;;;;;;107.82;33.08;;;;;;;;;;13081574;22;20066;-74
2022/11/15 04:48:19;;;;;;;106.25;36.97;;;;;;;;;;13081643;22;20068;-74
2022/11/15 04:53:19;;;;;;;109.63;37.90;;;;;;;;;;13080735;22;20390;-73
2022/11/15 04:58:20;;;;;;;100.55;35.58;;;;;;;;;;13081783;22;20481;-74
2022/11/15 05:08:39;;;;;;;95.50;33.38;;;;;;;;;;13130598;22;19994;-74
2022/11/15 05:13:39;;;;;;;93.43;31.92;;;;;;;;;;13081160;22;19991;-74
2022/11/15 05:18:40;;;;;;;96.07;35.47;;;;;;;;;;13081072;22;20481;-76
2022/11/15 05:23:40;;;;;;;92.47;34.20;;;;;;;;;;13080874;22;20136;-75
2022/11/15 05:28:40;;;;;;;86.67;33.07;;;;;;;;;;13079987;22;20452;-74
2022/11/15 05:33:42;;;;;;;87.88;34.05;;;;;;;;;;13080287;22;20430;-74
2022/11/15 05:38:42;;;;;;;118.60;35.13;;;;;;;;;;13079145;22;20075;-73
2022/11/15 05:43:43;;;;;;;83.40;30.40;;;;;;;;;;13079457;22;20028;-74
2022/11/15 05:48:47;;;;;;;74.97;24.30;;;;;;;;;;13128598;22;19994;-75
2022/11/15 05:53:50;;;;;;;69.40;25.35;;;;;;;;;;13079881;22;20018;-75
2022/11/15 05:58:52;;;;;;;75.80;24.75;;;;;;;;;;13119504;22;20535;-75
2022/11/15 06:03:53;;;;;;;51.97;21.35;;;;;;;;;;13111343;22;19994;-75
2022/11/15 06:08:54;;;;;;;49.17;21.48;;;;;;;;;;13059789;22;19999;-74
2022/11/15 06:13:54;;;;;;;51.67;22.73;;;;;;;;;;13081198;22;20081;-75
2022/11/15 06:18:54;;;;;;;65.05;24.30;;;;;;;;;;13079435;22;20241;-75
2022/11/15 06:23:55;;;;;;;73.47;23.60;;;;;;;;;;13079548;22;20063;-76
2022/11/15 06:28:55;;;;;;;80.93;27.60;;;;;;;;;;13078767;22;20355;-76
2022/11/15 06:33:55;;;;;;;75.37;29.30;;;;;;;;;;13076374;22;20221;-75
2022/11/15 06:38:56;;;;;;;91.13;24.80;;;;;;;;;;13074446;22;19995;-76
2022/11/15 06:43:57;;;;;;;96.38;30.25;;;;;;;;;;13123011;22;20447;-76
2022/11/15 06:48:57;;;;;;;104.53;28.42;;;;;;;;;;13103203;22;20377;-75
2022/11/15 06:53:58;;;;;;;93.85;28.80;;;;;;;;;;13076231;22;20006;-74
2022/11/15 06:58:58;;;;;;;134.68;39.63;;;;;;;;;;13106166;22;20053;-75
2022/11/15 07:03:58;;;;;;;83.50;27.13;;;;;;;;;;13127527;22;19987;-75
2022/11/15 07:08:58;;;;;;;79.55;29.52;;;;;;;;;;13128245;22;19990;-76
2022/11/15 07:13:59;;;;;;;98.30;35.45;;;;;;;;;;13078648;22;20090;-75
2022/11/15 07:18:59;;;;;;;97.90;32.38;;;;;;;;;;13078288;22;19995;-75
2022/11/15 07:24:00;;;;;;;106.47;36.40;;;;;;;;;;13052531;22;19995;-75
2022/11/15 07:29:00;;;;;;;112.90;39.13;;;;;;;;;;13078801;22;20743;-75
2022/11/15 07:34:00;;;;;;;108.07;39.60;;;;;;;;;;13078365;22;20002;-74
2022/11/15 07:39:00;;;;;;;95.78;35.50;;;;;;;;;;13127450;22;20006;-76
2022/11/15 07:44:01;;;;;;;107.05;38.13;;;;;;;;;;13078257;22;19994;-76
2022/11/15 07:49:01;;;;;;;95.10;36.78;;;;;;;;;;13077995;22;19997;-74
2022/11/15 07:54:02;;;;;;;124.22;43.33;;;;;;;;;;13079311;22;20079;-75
2022/11/15 07:59:02;;;;;;;131.97;44.27;;;;;;;;;;13077834;22;20015;-74
2022/11/15 08:04:02;;;;;;;125.38;44.15;;;;;;;;;;13127369;22;20323;-74
2022/11/15 08:09:03;;;;;;;130.10;45.28;;;;;;;;;;13127512;22;19997;-73
2022/11/15 08:14:03;;;;;;;110.57;41.35;;;;;;;;;;13078420;22;20048;-75
2022/11/15 08:19:03;;;;;;;114.67;40.47;;;;;;;;;;13127324;22;19998;-75
2022/11/15 08:24:04;;;;;;;106.18;38.28;;;;;;;;;;13083736;22;19994;-74
2022/11/15 08:29:04;;;;;;;99.43;36.25;;;;;;;;;;13139904;22;20454;-75
2022/11/15 08:34:05;;;;;;;105.72;35.13;;;;;;;;;;13129758;22;20073;-74
2022/11/15 08:39:05;;;;;;;101.45;35.55;;;;;;;;;;13078042;22;20079;-72
2022/11/15 08:44:05;;;;;;;86.72;34.35;;;;;;;;;;13075729;22;20050;-72
2022/11/15 08:49:06;;;;;;;93.77;36.07;;;;;;;;;;13074276;22;20486;-72
2022/11/15 08:54:06;;;;;;;96.15;35.58;;;;;;;;;;13123547;22;20469;-75
2022/11/15 08:59:06;;;;;;;97.38;35.95;;;;;;;;;;13074309;22;20076;-73
2022/11/15 09:04:07;;;;;;;100.57;35.65;;;;;;;;;;13074346;22;20070;-73
2022/11/15 09:09:07;;;;;;;92.30;36.03;;;;;;;;;;13072069;22;20388;-74
2022/11/15 09:14:07;;;;;;;96.82;36.08;;;;;;;;;;13124027;22;19991;-73
2022/11/15 09:19:07;;;;;;;91.75;35.25;;;;;;;;;;13075158;22;20034;-75
2022/11/15 09:24:08;;;;;;;94.97;36.92;;;;;;;;;;13075646;22;19990;-77
2022/11/15 09:29:08;;;;;;;105.53;39.25;;;;;;;;;;13078947;22;19991;-78
2022/11/15 09:34:09;;;;;;;82.18;33.75;;;;;;;;;;13078816;22;20018;-74
2022/11/15 09:39:09;;;;;;;88.65;36.80;;;;;;;;;;13079089;22;20372;-72
2022/11/15 09:44:45;;;;;;;83.93;35.20;;;;;;;;;;13078956;22;19987;-73
2022/11/15 09:49:45;;;;;;;101.95;38.08;;;;;;;;;;12927665;22;20015;-74
2022/11/15 09:54:48;;;;;;;78.33;31.83;;;;;;;;;;13124979;22;19999;-75
2022/11/15 09:59:54;;;;;;;89.03;36.03;;;;;;;;;;13078937;22;20015;-74
2022/11/15 10:04:58;;;;;;;86.47;33.85;;;;;;;;;;13078077;22;19990;-72
2022/11/15 10:10:01;;;;;;;78.65;34.20;;;;;;;;;;13078615;22;19995;-78
2022/11/15 10:15:04;;;;;;;80.07;31.33;;;;;;;;;;13078155;22;20573;-75
2022/11/15 10:20:12;;;;;;;81.88;33.17;;;;;;;;;;13090317;22;19987;-75
2022/11/15 10:25:12;;;;;;;82.22;31.92;;;;;;;;;;13127532;22;19998;-75
2022/11/15 10:30:16;;;;;;;83.63;31.63;;;;;;;;;;13078043;22;20074;-76
2022/11/15 10:35:20;;;;;;;74.03;31.55;;;;;;;;;;13075136;22;20511;-77
2022/11/15 10:40:22;;;;;;;63.83;30.13;;;;;;;;;;13075990;22;19998;-75
2022/11/15 10:45:27;;;;;;;59.75;25.75;;;;;;;;;;13076916;22;20013;-74
2022/11/15 10:50:30;;;;;;;51.30;25.20;;;;;;;;;;13098733;22;20070;-74
2022/11/15 10:55:31;;;;;;;59.13;26.52;;;;;;;;;;13077406;22;20007;-77
2022/11/15 11:00:41;;;;;;;66.57;27.52;;;;;;;;;;13076148;22;19999;-79
2022/11/15 11:05:42;;;;;;;58.47;25.98;;;;;;;;;;13078231;22;19995;-74
2022/11/15 11:10:52;;;;;;;58.60;26.23;;;;;;;;;;13079494;22;19990;-76
2022/11/15 11:16:02;;;;;;;53.42;25.27;;;;;;;;;;13077565;22;20093;-74
2022/11/15 11:21:11;;;;;;;60.10;26.13;;;;;;;;;;13078672;22;19991;-76
2022/11/15 11:26:34;;;;;;;63.83;27.42;;;;;;;;;;13127554;22;20119;-74
2022/11/15 11:31:50;;;;;;;61.83;29.92;;;;;;;;;;13129202;22;20089;-76
2022/11/15 11:37:00;;;;;;;63.78;29.63;;;;;;;;;;13104403;22;20049;-73
2022/11/15 11:42:01;;;;;;;78.65;33.00;;;;;;;;;;13113988;22;20431;-75
2022/11/15 11:47:06;;;;;;;80.25;35.42;;;;;;;;;;13075575;22;19998;-75
2022/11/15 11:52:15;;;;;;;77.75;32.88;;;;;;;;;;13076913;22;20003;-78
2022/11/15 11:57:23;;;;;;;78.68;34.42;;;;;;;;;;13075977;22;20112;-75
2022/11/15 12:02:24;;;;;;;85.88;35.78;;;;;;;;;;13050526;22;20033;-77
2022/11/15 12:07:27;;;;;;;88.15;36.45;;;;;;;;;;13076850;22;20005;-75
2022/11/15 12:12:28;;;;;;;81.97;34.08;;;;;;;;;;13075471;22;20461;-75
2022/11/15 12:17:32;;;;;;;79.60;32.28;;;;;;;;;;13125071;22;19995;-77
2022/11/15 12:22:38;;;;;;;89.40;34.70;;;;;;;;;;13076430;22;19987;-75
2022/11/15 12:27:42;;;;;;;72.47;30.10;;;;;;;;;;13075118;22;19991;-78
2022/11/15 12:32:58;;;;;;;74.95;32.60;;;;;;;;;;13075139;22;20125;-76
2022/11/15 12:37:59;;;;;;;73.18;32.63;;;;;;;;;;13074855;22;20085;-74
2022/11/15 12:43:01;;;;;;;87.22;33.97;;;;;;;;;;13076114;22;20015;-73
2022/11/15 12:48:16;;;;;;;81.20;32.30;;;;;;;;;;13123790;22;19990;-75
2022/11/15 12:53:23;;;;;;;80.13;36.45;;;;;;;;;;13076704;22;19995;-75
2022/11/15 12:58:28;;;;;;;83.35;34.05;;;;;;;;;;13033937;22;20008;-76
2022/11/15 13:03:29;;;;;;;87.78;34.85;;;;;;;;;;13064564;22;19995;-77
2022/11/15 13:08:55;;;;;;;77.63;33.47;;;;;;;;;;13016071;22;20029;-75
2022/11/15 13:13:56;;;;;;;77.40;32.08;;;;;;;;;;13038905;22;19999;-76
2022/11/15 13:18:57;;;;;;;82.03;33.40;;;;;;;;;;13041941;22;20003;-77
2022/11/15 13:23:58;;;;;;;80.38;35.95;;;;;;;;;;13041282;22;19995;-75
2022/11/15 13:28:59;;;;;;;81.32;32.78;;;;;;;;;;13041558;22;19991;-75
2022/11/15 13:34:01;;;;;;;75.80;33.50;;;;;;;;;;13041898;22;19991;-76
2022/11/15 13:39:06;;;;;;;79.88;34.35;;;;;;;;;;13041015;22;20006;-74
2022/11/15 13:44:18;;;;;;;85.25;36.00;;;;;;;;;;13041204;22;19995;-74
2022/11/15 13:49:28;;;;;;;88.80;37.20;;;;;;;;;;13064568;22;20026;-73
2022/11/15 13:54:43;;;;;;;85.22;35.90;;;;;;;;;;13040556;22;20003;-76
2022/11/15 13:59:49;;;;;;;88.80;36.08;;;;;;;;;;13041026;22;20011;-75
2022/11/15 14:04:51;;;;;;;94.78;39.22;;;;;;;;;;13040846;22;19994;-75
2022/11/15 14:09:51;;;;;;;86.90;35.15;;;;;;;;;;13040079;22;19995;-75
2022/11/15 14:14:51;;;;;;;102.25;39.63;;;;;;;;;;13063642;22;19984;-77
2022/11/15 14:19:52;;;;;;;92.00;35.83;;;;;;;;;;13047378;22;20427;-74
2022/11/15 14:25:15;;;;;;;85.23;37.30;;;;;;;;;;13048781;22;20213;-75
2022/11/15 14:30:16;;;;;;;83.28;35.30;;;;;;;;;;13042455;22;20368;-75
2022/11/15 14:35:18;;;;;;;86.38;36.88;;;;;;;;;;13066699;22;19995;-76
2022/11/15 14:40:19;;;;;;;90.55;37.33;;;;;;;;;;13053974;22;20148;-76
2022/11/15 14:45:21;;;;;;;99.93;38.83;;;;;;;;;;13041883;22;19991;-76
2022/11/15 14:50:21;;;;;;;95.60;39.33;;;;;;;;;;13040249;22;19996;-76
2022/11/15 14:55:23;;;;;;;88.70;37.35;;;;;;;;;;13060872;22;20022;-76
2022/11/15 15:00:24;;;;;;;90.88;37.65;;;;;;;;;;13079061;22;20021;-75
2022/11/15 15:05:34;;;;;;;110.50;43.08;;;;;;;;;;13052561;22;19998;-75
2022/11/15 15:10:39;;;;;;;107.70;46.22;;;;;;;;;;13076891;22;19991;-75
2022/11/15 15:15:39;;;;;;;127.03;47.13;;;;;;;;;;13051731;22;20346;-75
2022/11/15 15:20:40;;;;;;;126.00;49.75;;;;;;;;;;13077502;22;19990;-76
2022/11/15 15:25:41;;;;;;;128.80;50.03;;;;;;;;;;13077176;22;20010;-76
2022/11/15 15:30:42;;;;;;;108.90;45.88;;;;;;;;;;13077359;22;20008;-74
2022/11/15 15:35:42;;;;;;;111.77;49.07;;;;;;;;;;13077149;22;20060;-76
2022/11/15 15:40:43;;;;;;;120.15;47.90;;;;;;;;;;13078241;22;19995;-75
2022/11/15 15:45:44;;;;;;;130.43;50.53;;;;;;;;;;13077221;22;19990;-74
2022/11/15 15:50:47;;;;;;;124.95;53.05;;;;;;;;;;13077379;22;20052;-74
2022/11/15 15:55:47;;;;;;;131.35;52.70;;;;;;;;;;13076934;22;20027;-74
2022/11/15 16:00:47;;;;;;;132.38;57.90;;;;;;;;;;13076892;22;19987;-76
2022/11/15 16:05:49;;;;;;;139.52;58.10;;;;;;;;;;13076568;22;19991;-75
2022/11/15 16:10:49;;;;;;;149.23;55.22;;;;;;;;;;13051219;22;19995;-75
2022/11/15 16:15:52;;;;;;;117.38;49.65;;;;;;;;;;13076343;22;19998;-74
2022/11/15 16:20:56;;;;;;;123.95;48.17;;;;;;;;;;13050544;22;19990;-76
2022/11/15 16:25:56;;;;;;;125.43;51.28;;;;;;;;;;13077040;22;20026;-74
2022/11/15 16:31:03;;;;;;;116.70;49.43;;;;;;;;;;13125895;22;19998;-76
2022/11/15 16:36:04;;;;;;;117.78;48.88;;;;;;;;;;13076061;22;19999;-75
2022/11/15 16:41:04;;;;;;;149.13;58.65;;;;;;;;;;13090488;22;19993;-76
2022/11/15 16:46:18;;;;;;;135.68;52.95;;;;;;;;;;13077656;22;20082;-78
2022/11/15 16:51:19;;;;;;;122.43;52.92;;;;;;;;;;13083677;22;19997;-72
2022/11/15 16:56:24;;;;;;;135.77;57.05;;;;;;;;;;13125290;22;20006;-76
2022/11/15 17:01:26;;;;;;;135.70;55.65;;;;;;;;;;13132435;22;20084;-75
2022/11/15 17:06:27;;;;;;;118.72;49.55;;;;;;;;;;13080079;22;20037;-76
2022/11/15 17:11:27;;;;;;;120.38;47.33;;;;;;;;;;13124808;22;20066;-75
2022/11/15 17:16:27;;;;;;;115.60;48.55;;;;;;;;;;13075609;22;20038;-74
2022/11/15 17:21:28;;;;;;;115.80;48.80;;;;;;;;;;13075876;22;20009;-75
2022/11/15 17:26:29;;;;;;;121.65;48.63;;;;;;;;;;13094360;22;20003;-76
2022/11/15 17:31:32;;;;;;;129.40;49.75;;;;;;;;;;13073687;22;19994;-75
2022/11/15 17:36:33;;;;;;;122.22;49.63;;;;;;;;;;13074503;22;20319;-75
2022/11/15 17:41:33;;;;;;;128.02;49.78;;;;;;;;;;13074327;22;20066;-74
2022/11/15 17:46:35;;;;;;;123.28;50.13;;;;;;;;;;13076979;22;19990;-74
2022/11/15 17:51:35;;;;;;;116.25;50.53;;;;;;;;;;13078757;22;19998;-75
2022/11/15 17:56:37;;;;;;;120.28;47.28;;;;;;;;;;13077717;22;20011;-74
2022/11/15 18:01:37;;;;;;;127.53;48.60;;;;;;;;;;13079220;22;20399;-78
2022/11/15 18:06:37;;;;;;;113.30;50.13;;;;;;;;;;13078816;22;20073;-74
2022/11/15 18:11:40;;;;;;;119.80;48.00;;;;;;;;;;13078128;22;20793;-77
2022/11/15 18:16:40;;;;;;;124.05;48.28;;;;;;;;;;13078863;22;20418;-76
2022/11/15 18:22:03;;;;;;;123.97;49.42;;;;;;;;;;13052264;22;19995;-75
2022/11/15 18:27:04;;;;;;;128.02;54.47;;;;;;;;;;13126972;22;20073;-74
2022/11/15 18:32:10;;;;;;;125.43;53.40;;;;;;;;;;13078286;22;20369;-74
2022/11/15 18:37:10;;;;;;;125.25;54.05;;;;;;;;;;13078126;22;20005;-75
2022/11/15 18:42:10;;;;;;;125.75;51.60;;;;;;;;;;13077431;22;19990;-75
2022/11/15 18:47:10;;;;;;;131.52;53.80;;;;;;;;;;13078684;22;19991;-74
2022/11/15 18:52:11;;;;;;;141.52;54.10;;;;;;;;;;13078312;22;20019;-74
2022/11/15 18:57:11;;;;;;;130.50;54.13;;;;;;;;;;13104522;22;20033;-73
2022/11/15 19:02:11;;;;;;;134.80;57.60;;;;;;;;;;13077935;22;20074;-75
2022/11/15 19:07:12;;;;;;;137.70;55.17;;;;;;;;;;13083714;22;19998;-76
2022/11/15 19:12:12;;;;;;;137.55;57.83;;;;;;;;;;13085708;22;20034;-75
2022/11/15 19:17:12;;;;;;;139.35;58.28;;;;;;;;;;13083903;22;20006;-75
2022/11/15 19:22:12;;;;;;;139.65;59.72;;;;;;;;;;13078834;22;19987;-75
2022/11/15 19:27:13;;;;;;;143.63;58.20;;;;;;;;;;13077186;22;20001;-75
2022/11/15 19:32:13;;;;;;;140.15;57.28;;;;;;;;;;13077253;22;19995;-80
2022/11/15 19:37:13;;;;;;;132.13;55.42;;;;;;;;;;13125976;22;19997;-75
2022/11/15 19:42:14;;;;;;;143.43;60.33;;;;;;;;;;13125519;22;20442;-75
2022/11/15 19:47:14;;;;;;;144.35;60.72;;;;;;;;;;13069524;22;20014;-76
2022/11/15 19:52:14;;;;;;;135.23;57.22;;;;;;;;;;13073095;22;19998;-75
2022/11/15 19:57:15;;;;;;;141.77;57.10;;;;;;;;;;13107988;22;20077;-75
2022/11/15 20:02:15;;;;;;;133.65;55.75;;;;;;;;;;13065819;22;20015;-74
2022/11/15 20:07:15;;;;;;;131.43;57.25;;;;;;;;;;13065440;22;20307;-75
2022/11/15 20:12:15;;;;;;;131.27;56.35;;;;;;;;;;13066649;22;20311;-74
2022/11/15 20:17:16;;;;;;;130.90;56.67;;;;;;;;;;13108391;22;20064;-75
2022/11/15 20:22:16;;;;;;;130.90;53.40;;;;;;;;;;12952402;22;1155836;-75
2022/11/15 20:27:16;;;;;;;124.77;53.47;;;;;;;;;;13007536;22;20061;-74
2022/11/15 20:32:17;;;;;;;132.82;56.25;;;;;;;;;;13054597;22;19987;-76
2022/11/15 20:37:18;;;;;;;139.40;58.55;;;;;;;;;;13006444;22;19999;-74
2022/11/15 20:42:19;;;;;;;139.07;59.10;;;;;;;;;;13018163;22;19988;-79
2022/11/15 20:47:20;;;;;;;136.70;59.40;;;;;;;;;;12967797;22;19996;-73
2022/11/15 20:52:20;;;;;;;146.30;62.70;;;;;;;;;;12943209;22;20347;-73
2022/11/15 20:57:20;;;;;;;143.23;62.33;;;;;;;;;;12945641;22;20200;-73
2022/11/15 21:02:21;;;;;;;168.10;70.10;;;;;;;;;;12944849;22;20075;-79
2022/11/15 21:07:22;;;;;;;170.38;72.43;;;;;;;;;;12943193;22;19996;-76
2022/11/15 21:12:22;;;;;;;173.10;74.72;;;;;;;;;;12944167;22;20000;-78
2022/11/15 21:17:23;;;;;;;177.13;76.57;;;;;;;;;;12947691;22;19996;-77
2022/11/15 21:22:23;;;;;;;172.48;70.22;;;;;;;;;;12964738;22;20044;-74
2022/11/15 21:27:24;;;;;;;173.15;73.72;;;;;;;;;;12972867;22;20023;-74
2022/11/15 21:32:24;;;;;;;163.40;71.80;;;;;;;;;;13012299;22;20355;-75
2022/11/15 21:37:24;;;;;;;152.13;63.30;;;;;;;;;;13012531;22;20004;-74
2022/11/15 21:42:25;;;;;;;135.93;55.22;;;;;;;;;;12950141;22;19999;-73
2022/11/15 21:47:25;;;;;;;131.68;55.90;;;;;;;;;;12951131;22;20031;-77
2022/11/15 21:52:25;;;;;;;129.65;51.03;;;;;;;;;;12994579;22;20065;-72
2022/11/15 21:57:29;;;;;;;115.75;50.47;;;;;;;;;;12947663;22;19999;-75
2022/11/15 22:02:30;;;;;;;119.43;50.88;;;;;;;;;;12948827;22;19987;-72
2022/11/15 22:07:31;;;;;;;125.78;56.25;;;;;;;;;;12948903;22;19992;-72
2022/11/15 22:12:31;;;;;;;122.50;53.55;;;;;;;;;;12995975;22;20066;-75
2022/11/15 22:22:50;;;;;;;128.10;56.20;;;;;;;;;;12976157;22;20011;-77
2022/11/15 22:27:51;;;;;;;129.37;55.33;;;;;;;;;;12948858;22;20007;-77
2022/11/15 22:32:51;;;;;;;135.43;57.90;;;;;;;;;;12973738;22;19992;-81
2022/11/15 22:37:51;;;;;;;147.20;62.22;;;;;;;;;;12947087;22;19999;-77
2022/11/15 22:42:51;;;;;;;134.50;61.15;;;;;;;;;;12948673;22;20080;-77
2022/11/15 22:47:52;;;;;;;163.48;65.85;;;;;;;;;;12947860;22;19999;-75
2022/11/15 22:52:52;;;;;;;147.65;64.07;;;;;;;;;;12994484;22;20342;-78
2022/11/15 22:57:53;;;;;;;126.22;53.30;;;;;;;;;;12947396;22;20000;-77
2022/11/15 23:02:53;;;;;;;127.80;51.80;;;;;;;;;;12947111;22;19991;-77
2022/11/15 23:07:53;;;;;;;128.82;50.60;;;;;;;;;;12947343;22;19992;-73
2022/11/15 23:18:14;;;;;;;127.13;54.00;;;;;;;;;;12992473;22;19999;-75
2022/11/15 23:23:14;;;;;;;125.55;51.05;;;;;;;;;;12947509;22;19991;-76
2022/11/15 23:28:14;;;;;;;143.63;57.60;;;;;;;;;;12948584;22;19995;-78
2022/11/15 23:38:36;;;;;;;125.13;54.33;;;;;;;;;;12998383;22;20004;-72
2022/11/15 23:43:36;;;;;;;139.63;56.83;;;;;;;;;;12998523;22;20045;-73
2022/11/15 23:48:36;;;;;;;128.80;54.80;;;;;;;;;;12950977;22;20512;-74
2022/11/15 23:53:36;;;;;;;128.02;53.33;;;;;;;;;;12949740;22;20432;-73
2022/11/15 23:58:37;;;;;;;139.30;54.17;;;;;;;;;;12949136;22;20402;-74
